Time;durP1;ratioP1;P1;durP2;ratioP2;P2;SDS_P1;SDS_P2;PMS_P1;PMS_P2;Temp;Humidity;BMP_temperature;BMP_pressure;BME280_temperature;BME280_humidity;BME280_pressure;Samples;Min_cycle;Max_cycle;Signal;HPM_P1;HPM_P2
2023/03/16 00:00:23;;;;;;;1.58;0.50;;;;;;;8.50;100.00;100268.28;5045698;28;20070;-52
2023/03/16 00:02:49;;;;;;;5.78;1.20;;;;;;;8.54;100.00;100262.63;5048488;28;20094;-49
2023/03/16 00:05:14;;;;;;;1.13;0.10;;;;;;;8.54;100.00;100270.56;5046284;28;20462;-54
2023/03/16 00:07:41;;;;;;;2.45;0.43;;;;;;;8.66;100.00;100258.53;5048629;28;20053;-49
2023/03/16 00:10:06;;;;;;;2.92;0.40;;;;;;;8.64;100.00;100258.69;5049162;28;20035;-49
2023/03/16 00:12:33;;;;;;;6.53;0.77;;;;;;;8.65;100.00;100260.34;5043848;28;20386;-49
2023/03/16 00:14:59;;;;;;;2.28;0.90;;;;;;;8.63;100.00;100256.25;5056723;28;20056;-51
2023/03/16 00:17:25;;;;;;;5.38;0.57;;;;;;;8.64;100.00;100255.25;5052120;28;20025;-52
2023/03/16 00:19:56;;;;;;;3.83;0.50;;;;;;;8.69;100.00;100247.59;5045845;28;20536;-50
2023/03/16 00:22:24;;;;;;;2.70;1.63;;;;;;;8.71;100.00;100240.28;5046193;28;20056;-51
2023/03/16 00:24:51;;;;;;;1.45;0.32;;;;;;;8.73;100.00;100238.28;5050437;28;20470;-49
2023/03/16 00:27:17;;;;;;;2.75;0.88;;;;;;;8.73;100.00;100238.28;5044808;28;20033;-52
2023/03/16 00:29:47;;;;;;;1.63;0.95;;;;;;;8.76;100.00;100235.28;5046837;28;20029;-49
2023/03/16 00:32:24;;;;;;;11.15;1.65;;;;;;;8.84;100.00;100229.88;5050613;28;20043;-49
2023/03/16 00:34:50;;;;;;;6.63;1.45;;;;;;;8.88;100.00;100225.88;5044469;28;20059;-48
2023/03/16 00:37:17;;;;;;;0.32;0.20;;;;;;;8.91;100.00;100203.53;5044867;28;20429;-49
2023/03/16 00:39:44;;;;;;;3.17;1.48;;;;;;;8.92;100.00;100202.50;5049442;28;20021;-50
2023/03/16 00:42:12;;;;;;;1.85;1.08;;;;;;;8.95;100.00;100200.28;5046383;28;20047;-51
2023/03/16 00:44:37;;;;;;;4.40;0.73;;;;;;;9.00;100.00;100199.75;5044612;28;20474;-49
2023/03/16 00:47:04;;;;;;;4.60;1.27;;;;;;;9.08;100.00;100190.88;5047962;28;20040;-50
2023/03/16 00:49:33;;;;;;;2.72;0.65;;;;;;;9.04;100.00;100187.78;5053411;28;20031;-50
2023/03/16 00:52:03;;;;;;;0.60;0.40;;;;;;;9.11;100.00;100179.91;5048943;28;20082;-49
2023/03/16 00:54:31;;;;;;;5.25;1.88;;;;;;;9.11;100.00;100175.47;5048472;28;20034;-50
2023/03/16 00:57:00;;;;;;;5.30;1.20;;;;;;;9.14;100.00;100168.97;5049810;28;20465;-51
2023/03/16 00:59:27;;;;;;;3.70;0.68;;;;;;;9.17;100.00;100179.97;5055800;28;20070;-49
2023/03/16 01:01:53;;;;;;;1.75;0.80;;;;;;;9.20;100.00;100170.03;5049378;28;20029;-49
2023/03/16 01:04:19;;;;;;;4.45;0.88;;;;;;;9.29;100.00;100174.16;5043409;28;20525;-52
2023/03/16 01:06:45;;;;;;;1.92;1.10;;;;;;;9.27;100.00;100161.16;5047334;28;20029;-49
2023/03/16 01:09:11;;;;;;;4.50;0.70;;;;;;;9.19;100.00;100163.94;5045107;28;20025;-51
2023/03/16 01:11:36;;;;;;;1.85;0.65;;;;;;;9.22;100.00;100158.25;5050611;28;20032;-51
2023/03/16 01:14:02;;;;;;;3.00;0.43;;;;;;;9.20;100.00;100159.47;5046135;28;20040;-51
2023/03/16 01:16:28;;;;;;;2.17;1.38;;;;;;;9.24;100.00;100150.97;5045588;28;20043;-51
2023/03/16 01:18:55;;;;;;;1.85;1.75;;;;;;;9.26;100.00;100143.63;5043032;28;20488;-52
2023/03/16 01:21:21;;;;;;;2.17;1.05;;;;;;;9.21;100.00;100146.03;5054438;28;20485;-51
2023/03/16 01:23:47;;;;;;;6.70;1.55;;;;;;;9.24;100.00;100135.09;5051825;28;20025;-51
2023/03/16 01:26:15;;;;;;;7.00;2.40;;;;;;;9.25;100.00;100136.72;5051264;28;20036;-50
2023/03/16 01:28:40;;;;;;;4.05;1.13;;;;;;;9.29;100.00;100118.63;5043400;28;20025;-49
2023/03/16 01:31:09;;;;;;;5.15;0.93;;;;;;;9.31;100.00;100121.91;5053078;28;20120;-50
2023/03/16 01:33:35;;;;;;;2.63;0.63;;;;;;;9.38;100.00;100115.66;5048012;28;20159;-52
2023/03/16 01:36:03;;;;;;;1.10;0.63;;;;;;;9.38;100.00;100112.19;5051694;28;20112;-53
2023/03/16 01:38:28;;;;;;;3.92;1.13;;;;;;;9.53;100.00;100122.69;5047862;28;20433;-51
2023/03/16 01:40:55;;;;;;;3.55;1.23;;;;;;;9.58;100.00;100109.69;5048459;28;20041;-53
2023/03/16 01:43:23;;;;;;;3.90;2.15;;;;;;;9.56;100.00;100106.41;5050215;28;20040;-51
2023/03/16 01:46:03;;;;;;;0.95;0.63;;;;;;;9.56;100.00;100098.47;5058289;28;20389;-57
2023/03/16 01:48:36;;;;;;;6.55;2.38;;;;;;;9.61;100.00;100099.53;5042050;28;20025;-53
2023/03/16 01:51:41;;;;;;;7.20;2.05;;;;;;;9.72;100.00;100102.66;5042915;28;20063;-53
2023/03/16 01:54:14;;;;;;;5.82;1.92;;;;;;;9.68;100.00;100089.00;5049774;28;20090;-53
2023/03/16 01:56:51;;;;;;;4.40;1.10;;;;;;;9.70;100.00;100078.19;5055751;28;20044;-50
2023/03/16 01:59:21;;;;;;;5.53;1.45;;;;;;;9.68;100.00;100072.25;5049571;28;20040;-50
2023/03/16 02:01:47;;;;;;;7.60;2.17;;;;;;;9.71;100.00;100067.41;5056256;28;20405;-50
2023/03/16 02:04:23;;;;;;;3.72;0.98;;;;;;;9.70;100.00;100064.94;5052211;28;20121;-51
2023/03/16 02:06:48;;;;;;;4.65;2.05;;;;;;;9.75;100.00;100068.63;5052243;28;20131;-49
2023/03/16 02:09:19;;;;;;;4.88;0.80;;;;;;;9.77;100.00;100055.22;5044034;28;20033;-53
2023/03/16 02:11:45;;;;;;;3.22;1.90;;;;;;;9.83;100.00;100052.63;5050815;28;20474;-49
2023/03/16 02:14:13;;;;;;;3.78;1.45;;;;;;;9.92;100.00;100057.75;5056601;28;20039;-49
2023/03/16 02:16:40;;;;;;;3.47;0.90;;;;;;;10.02;100.00;100055.53;5054055;28;20071;-49
2023/03/16 02:19:15;;;;;;;1.02;0.90;;;;;;;10.02;100.00;100052.91;5043521;28;20446;-52
2023/03/16 02:22:01;;;;;;;1.63;0.77;;;;;;;10.07;100.00;100050.47;5045274;28;20048;-53
2023/03/16 02:24:26;;;;;;;3.40;0.68;;;;;;;10.14;100.00;100053.94;5049262;28;20029;-49
2023/03/16 02:26:56;;;;;;;2.33;2.22;;;;;;;10.22;100.00;100043.19;5049027;28;20056;-49
2023/03/16 02:29:43;;;;;;;3.28;1.08;;;;;;;10.28;100.00;100035.50;5048662;28;20128;-52
2023/03/16 02:32:10;;;;;;;2.03;0.70;;;;;;;10.26;100.00;100033.00;5052677;28;20039;-50
2023/03/16 02:34:36;;;;;;;1.83;1.35;;;;;;;10.30;100.00;100028.13;5054672;28;20024;-49
2023/03/16 02:37:02;;;;;;;4.00;1.58;;;;;;;10.30;100.00;100028.13;5041665;28;20079;-49
2023/03/16 02:39:27;;;;;;;3.17;1.85;;;;;;;10.35;100.00;100029.19;5048215;28;20021;-52
2023/03/16 02:41:52;;;;;;;3.55;2.53;;;;;;;10.35;100.00;100023.06;5052712;28;20028;-49
2023/03/16 02:44:27;;;;;;;2.15;1.58;;;;;;;10.35;100.00;100015.94;5049684;28;20033;-50
2023/03/16 02:47:02;;;;;;;1.98;0.93;;;;;;;10.43;100.00;100017.59;5050664;28;20029;-55
2023/03/16 02:49:38;;;;;;;0.60;0.60;;;;;;;10.54;100.00;100008.22;5046409;28;20057;-52
2023/03/16 02:52:07;;;;;;;1.02;0.65;;;;;;;10.54;100.00;99997.63;5039800;28;20320;-50
2023/03/16 02:54:32;;;;;;;1.63;0.75;;;;;;;10.54;100.00;100003.72;5047229;28;20029;-53
2023/03/16 02:56:58;;;;;;;3.33;2.45;;;;;;;10.58;100.00;99996.19;5047581;28;20037;-53
2023/03/16 02:59:23;;;;;;;1.95;1.45;;;;;;;10.53;100.00;100001.28;5050101;28;20071;-49
2023/03/16 03:01:50;;;;;;;4.85;1.30;;;;;;;10.59;100.00;100003.13;5046258;28;20061;-49
2023/03/16 03:04:16;;;;;;;2.35;0.98;;;;;;;10.63;100.00;100005.16;5051032;28;20033;-49
2023/03/16 03:06:41;;;;;;;2.20;1.35;;;;;;;10.60;100.00;99996.78;5049142;28;20500;-48
2023/03/16 03:09:06;;;;;;;6.97;2.05;;;;;;;10.67;100.00;100001.09;5043196;28;20029;-49
2023/03/16 03:11:32;;;;;;;3.83;0.88;;;;;;;10.67;100.00;99993.13;5046972;28;20032;-49
2023/03/16 03:13:57;;;;;;;1.02;0.90;;;;;;;10.71;100.00;99993.53;5042783;28;20068;-50
2023/03/16 03:16:23;;;;;;;0.55;0.43;;;;;;;10.76;100.00;99998.22;5043678;28;20447;-49
2023/03/16 03:18:49;;;;;;;1.90;0.50;;;;;;;10.82;100.00;99992.13;5042657;28;20049;-49
2023/03/16 03:21:15;;;;;;;3.40;2.13;;;;;;;10.75;100.00;99993.97;5044970;28;20041;-51
2023/03/16 03:23:40;;;;;;;2.05;1.20;;;;;;;10.87;100.00;100000.28;5051085;28;20029;-53
2023/03/16 03:26:06;;;;;;;0.43;0.43;;;;;;;10.95;100.00;99997.44;5050324;28;20017;-54
2023/03/16 03:28:33;;;;;;;2.40;0.85;;;;;;;10.99;100.00;99987.22;5043095;28;20016;-56
2023/03/16 03:31:00;;;;;;;1.85;0.90;;;;;;;10.96;100.00;99993.75;5039629;28;20032;-53
2023/03/16 03:33:26;;;;;;;7.97;1.88;;;;;;;10.93;100.00;99988.03;5045878;28;20525;-51
2023/03/16 03:35:56;;;;;;;3.08;0.90;;;;;;;10.95;100.00;99983.34;5043477;28;20037;-56
2023/03/16 03:38:22;;;;;;;4.28;0.63;;;;;;;11.01;100.00;99980.69;5040503;28;20032;-53
2023/03/16 03:40:50;;;;;;;3.05;0.63;;;;;;;10.99;100.00;99984.56;5047337;28;20017;-56
2023/03/16 03:43:16;;;;;;;1.35;1.13;;;;;;;11.03;100.00;99975.19;5050451;28;20029;-53
2023/03/16 03:45:41;;;;;;;0.60;0.40;;;;;;;11.08;100.00;99972.72;5052198;28;20418;-52
2023/03/16 03:48:07;;;;;;;1.17;0.38;;;;;;;11.07;100.00;99979.03;5040080;28;20024;-50
2023/03/16 03:50:32;;;;;;;0.50;0.50;;;;;;;11.11;100.00;99980.25;5052263;28;20061;-51
2023/03/16 03:52:57;;;;;;;0.10;0.10;;;;;;;11.08;100.00;99978.84;5050364;28;20592;-54
2023/03/16 03:55:22;;;;;;;0.20;0.20;;;;;;;11.11;100.00;99981.06;5042761;28;20123;-55
2023/03/16 03:57:48;;;;;;;0.35;0.20;;;;;;;11.12;100.00;99981.88;5047980;28;20482;-55
2023/03/16 04:00:14;;;;;;;1.10;0.40;;;;;;;11.18;100.00;99982.88;5042775;28;20052;-51
2023/03/16 04:02:39;;;;;;;2.08;0.20;;;;;;;11.16;100.00;99977.00;5047690;28;20465;-50
2023/03/16 04:05:06;;;;;;;1.48;0.30;;;;;;;11.14;100.00;99988.63;5051473;28;20392;-52
2023/03/16 04:07:31;;;;;;;0.80;0.15;;;;;;;11.12;100.00;99977.38;5045079;28;20029;-50
2023/03/16 04:09:57;;;;;;;0.08;0.00;;;;;;;11.12;100.00;99977.38;5048542;28;20036;-53
2023/03/16 04:12:22;;;;;;;2.20;0.20;;;;;;;11.13;100.00;99978.22;5051415;28;20493;-50
2023/03/16 04:14:48;;;;;;;1.27;0.10;;;;;;;11.07;100.00;99971.88;5050313;28;20060;-52
2023/03/16 04:17:13;;;;;;;0.20;0.10;;;;;;;11.04;100.00;99971.50;5044730;28;20118;-54
2023/03/16 04:19:38;;;;;;;1.42;0.10;;;;;;;11.03;100.00;99969.88;5047751;28;20125;-50
2023/03/16 04:22:04;;;;;;;1.17;0.13;;;;;;;11.08;100.00;99962.09;5040637;28;20017;-49
2023/03/16 04:24:33;;;;;;;3.97;0.17;;;;;;;11.13;100.00;99965.78;5039430;28;20026;-53
2023/03/16 04:27:01;;;;;;;4.13;0.35;;;;;;;11.06;100.00;99969.44;5048147;28;20028;-51
2023/03/16 04:29:27;;;;;;;0.95;0.10;;;;;;;11.11;100.00;99961.69;5048305;28;20060;-51
2023/03/16 04:31:55;;;;;;;2.55;1.08;;;;;;;11.14;100.00;99959.44;5048881;28;20121;-51
2023/03/16 04:34:23;;;;;;;0.75;0.20;;;;;;;11.12;100.00;99963.31;5049632;28;20033;-49
2023/03/16 04:36:52;;;;;;;0.88;0.40;;;;;;;11.19;100.00;99964.13;5038945;28;20033;-53
2023/03/16 04:39:18;;;;;;;3.33;1.30;;;;;;;11.16;100.00;99964.53;5045627;28;20040;-51
2023/03/16 04:41:44;;;;;;;2.47;1.08;;;;;;;11.17;100.00;99968.00;5046947;28;20702;-50
2023/03/16 04:44:09;;;;;;;0.98;0.35;;;;;;;11.17;100.00;99968.81;5054942;28;20032;-55
2023/03/16 04:46:34;;;;;;;2.10;1.08;;;;;;;11.18;100.00;99961.66;5049321;28;20048;-54
2023/03/16 04:49:00;;;;;;;4.18;0.28;;;;;;;11.18;100.00;99961.66;5048771;28;20037;-52
2023/03/16 04:51:26;;;;;;;4.75;0.45;;;;;;;11.14;100.00;99967.38;5047052;28;20055;-61
2023/03/16 04:53:52;;;;;;;1.23;0.35;;;;;;;11.16;100.00;99947.81;5058995;28;20111;-54
2023/03/16 04:56:18;;;;;;;2.45;0.43;;;;;;;11.19;100.00;99940.22;5052685;28;20466;-52
2023/03/16 04:58:45;;;;;;;2.13;0.40;;;;;;;11.17;100.00;99936.16;5047177;28;20103;-55
2023/03/16 05:01:10;;;;;;;4.05;0.52;;;;;;;11.07;100.00;99924.13;5047271;28;20056;-49
2023/03/16 05:03:35;;;;;;;1.10;0.60;;;;;;;11.09;100.00;99943.31;5052975;28;20032;-49
2023/03/16 05:06:01;;;;;;;5.43;0.60;;;;;;;11.04;100.00;99935.16;5049506;28;20021;-51
2023/03/16 05:08:26;;;;;;;7.00;1.15;;;;;;;11.04;100.00;99935.16;5054999;28;20024;-49
2023/03/16 05:10:56;;;;;;;4.05;1.55;;;;;;;11.16;100.00;99937.19;5053426;28;20031;-49
2023/03/16 05:13:21;;;;;;;3.50;0.40;;;;;;;11.07;100.00;99934.75;5053933;28;20401;-52
2023/03/16 05:15:46;;;;;;;3.40;1.73;;;;;;;11.16;100.00;99931.88;5047972;28;20033;-51
2023/03/16 05:18:12;;;;;;;2.47;0.50;;;;;;;11.21;100.00;99938.19;5048642;28;20114;-53
2023/03/16 05:20:37;;;;;;;5.32;0.45;;;;;;;11.17;100.00;99926.34;5053821;28;20020;-52
2023/03/16 05:23:02;;;;;;;3.53;0.68;;;;;;;11.19;100.00;99931.47;5053526;28;20532;-54
2023/03/16 05:25:28;;;;;;;1.73;0.70;;;;;;;11.11;100.00;99930.66;5044201;28;20017;-55
2023/03/16 05:27:53;;;;;;;2.47;0.40;;;;;;;11.14;100.00;99935.53;5040224;28;20401;-54
2023/03/16 05:30:19;;;;;;;3.55;0.65;;;;;;;11.22;100.00;99933.69;5045357;28;20025;-52
2023/03/16 05:32:45;;;;;;;9.23;1.13;;;;;;;11.25;100.00;99926.13;5039830;28;20466;-50
2023/03/16 05:35:12;;;;;;;2.55;2.15;;;;;;;11.26;100.00;99927.78;5054285;28;20036;-54
2023/03/16 05:37:38;;;;;;;3.10;1.38;;;;;;;11.24;100.00;99929.00;5043644;28;20016;-52
2023/03/16 05:40:21;;;;;;;10.90;2.92;;;;;;;11.33;100.00;99927.72;5047157;28;20025;-54
2023/03/16 05:42:49;;;;;;;3.90;1.10;;;;;;;11.32;100.00;99931.44;5044686;28;20017;-49
2023/03/16 05:45:15;;;;;;;2.25;1.38;;;;;;;11.32;100.00;99924.28;5041101;28;20052;-51
2023/03/16 05:47:42;;;;;;;2.55;1.17;;;;;;;11.20;100.00;99927.78;5047032;28;20040;-51
2023/03/16 05:50:10;;;;;;;4.07;0.60;;;;;;;11.24;100.00;99932.47;5048305;28;20098;-49
2023/03/16 05:52:37;;;;;;;2.67;0.85;;;;;;;11.25;100.00;99931.44;5048647;28;20373;-50
2023/03/16 05:55:04;;;;;;;2.40;0.90;;;;;;;11.24;100.00;99931.66;5049159;28;20147;-53
2023/03/16 05:57:30;;;;;;;5.00;1.77;;;;;;;11.23;100.00;99928.19;5049776;28;20444;-52
2023/03/16 05:59:56;;;;;;;0.95;0.38;;;;;;;11.11;100.00;99924.53;5047358;28;20025;-53
2023/03/16 06:02:21;;;;;;;5.20;0.95;;;;;;;11.18;100.00;99929.81;5045700;28;20066;-53
2023/03/16 06:04:47;;;;;;;2.05;0.63;;;;;;;11.24;100.00;99931.66;5045712;28;20028;-50
2023/03/16 06:07:12;;;;;;;9.63;1.20;;;;;;;11.23;100.00;99924.69;5045609;28;20278;-49
2023/03/16 06:09:37;;;;;;;0.88;0.55;;;;;;;11.17;100.00;99922.88;5054803;28;20133;-53
2023/03/16 06:12:03;;;;;;;1.02;0.45;;;;;;;11.11;100.00;99924.53;5057571;28;20110;-51
2023/03/16 06:14:29;;;;;;;4.88;0.60;;;;;;;11.23;100.00;99922.88;5052575;28;20025;-50
2023/03/16 06:16:55;;;;;;;0.47;0.40;;;;;;;10.88;100.00;99931.09;5052662;28;20123;-50
2023/03/16 06:19:20;;;;;;;1.83;0.45;;;;;;;11.00;100.00;99933.97;5048776;28;20041;-50
2023/03/16 06:21:46;;;;;;;1.90;0.30;;;;;;;11.07;100.00;99920.66;5047370;28;20037;-53
2023/03/16 06:24:11;;;;;;;1.40;0.30;;;;;;;10.74;100.00;99924.22;5049771;28;20079;-53
2023/03/16 06:26:37;;;;;;;2.58;0.45;;;;;;;11.05;100.00;99925.38;5051653;28;20037;-50
2023/03/16 06:29:02;;;;;;;3.08;0.20;;;;;;;11.09;100.00;99924.75;5053458;28;20064;-49
2023/03/16 06:31:28;;;;;;;3.88;0.85;;;;;;;11.07;100.00;99925.97;5049433;28;20031;-49
2023/03/16 06:33:54;;;;;;;2.47;1.20;;;;;;;11.09;100.00;99927.41;5054269;28;20115;-49
2023/03/16 06:36:20;;;;;;;2.03;0.30;;;;;;;11.01;100.00;99926.81;5050150;28;20498;-51
2023/03/16 06:38:45;;;;;;;3.13;0.40;;;;;;;10.98;100.00;99930.69;5041360;28;20024;-50
2023/03/16 06:41:10;;;;;;;2.63;0.77;;;;;;;10.99;100.00;99937.63;5054725;28;20029;-49
2023/03/16 06:43:36;;;;;;;3.55;0.20;;;;;;;10.91;100.00;99938.66;5044754;28;20039;-49
2023/03/16 06:46:02;;;;;;;1.83;0.93;;;;;;;11.02;100.00;99942.53;5056566;28;20037;-49
2023/03/16 06:48:28;;;;;;;1.48;0.30;;;;;;;11.01;100.00;99938.22;5042844;28;20492;-50
2023/03/16 06:50:53;;;;;;;3.15;0.30;;;;;;;11.08;100.00;99922.31;5049804;28;20420;-51
2023/03/16 06:53:18;;;;;;;0.65;0.28;;;;;;;11.13;100.00;99920.66;5050023;28;20017;-49
2023/03/16 06:55:44;;;;;;;5.38;0.38;;;;;;;11.19;100.00;99915.53;5059897;28;20416;-49
2023/03/16 06:58:10;;;;;;;5.05;1.45;;;;;;;11.22;100.00;99909.81;5039194;28;20393;-49
2023/03/16 07:00:36;;;;;;;6.82;1.60;;;;;;;11.22;100.00;99909.81;5049685;28;20032;-54
2023/03/16 07:03:01;;;;;;;4.38;1.05;;;;;;;11.14;100.00;99903.72;5057670;28;20060;-50
2023/03/16 07:05:27;;;;;;;4.10;1.75;;;;;;;11.12;100.00;99899.63;5051171;28;20021;-52
2023/03/16 07:07:53;;;;;;;4.28;1.35;;;;;;;11.08;100.00;99909.03;5045061;28;20037;-49
2023/03/16 07:10:19;;;;;;;3.22;0.50;;;;;;;11.15;100.00;99915.13;5049318;28;20021;-53
2023/03/16 07:12:45;;;;;;;3.03;0.98;;;;;;;11.15;100.00;99915.13;5047132;28;20087;-52
2023/03/16 07:15:11;;;;;;;6.25;0.50;;;;;;;11.14;100.00;99909.00;5035979;28;20036;-53
2023/03/16 07:17:37;;;;;;;3.53;0.55;;;;;;;11.19;100.00;99918.19;5045083;28;20036;-56
2023/03/16 07:20:04;;;;;;;1.35;0.15;;;;;;;11.16;100.00;99913.31;5042587;28;20124;-51
2023/03/16 07:22:31;;;;;;;7.97;1.48;;;;;;;11.19;100.00;99912.91;5042451;28;20115;-51
2023/03/16 07:24:57;;;;;;;5.25;1.95;;;;;;;11.22;100.00;99896.56;5045082;28;20417;-53
2023/03/16 07:27:23;;;;;;;2.63;0.35;;;;;;;10.88;100.00;99891.31;5049755;28;20501;-53
2023/03/16 07:29:50;;;;;;;9.63;1.65;;;;;;;11.00;100.00;99883.56;5043602;28;20032;-50
2023/03/16 07:32:16;;;;;;;6.15;0.63;;;;;;;11.13;100.00;99902.09;5041533;28;20160;-49
2023/03/16 07:34:42;;;;;;;2.75;2.35;;;;;;;11.21;100.00;99902.88;5046375;28;20107;-50
2023/03/16 07:37:07;;;;;;;5.45;0.85;;;;;;;11.23;100.00;99895.50;5050554;28;20040;-49
2023/03/16 07:39:36;;;;;;;1.65;0.73;;;;;;;11.16;100.00;99898.19;5046732;28;20453;-54
2023/03/16 07:42:02;;;;;;;13.68;1.42;;;;;;;11.20;100.00;99903.91;5045453;28;20024;-53
2023/03/16 07:44:28;;;;;;;2.17;0.40;;;;;;;11.20;100.00;99901.25;5045433;28;20021;-53
2023/03/16 07:46:54;;;;;;;5.63;0.52;;;;;;;11.19;100.00;99910.25;5045338;28;20163;-53
2023/03/16 07:49:20;;;;;;;5.10;0.57;;;;;;;11.25;100.00;99912.03;5043808;28;20025;-52
2023/03/16 07:51:45;;;;;;;4.13;0.88;;;;;;;11.26;100.00;99903.09;5034281;28;20052;-49
2023/03/16 07:54:10;;;;;;;1.42;0.40;;;;;;;11.30;100.00;99906.94;5047236;28;20029;-53
2023/03/16 07:56:36;;;;;;;1.92;0.20;;;;;;;11.28;100.00;99908.97;5046633;28;20039;-52
2023/03/16 07:59:02;;;;;;;2.25;0.20;;;;;;;11.23;100.00;99914.09;5042025;28;20025;-53
2023/03/16 08:01:28;;;;;;;7.07;0.80;;;;;;;11.16;100.00;99915.97;5054104;28;20082;-55
2023/03/16 08:03:53;;;;;;;2.17;0.63;;;;;;;11.21;100.00;99910.84;5045482;28;20586;-55
2023/03/16 08:06:20;;;;;;;3.85;0.40;;;;;;;11.22;100.00;99915.94;5045872;28;20025;-53
2023/03/16 08:08:46;;;;;;;0.55;0.20;;;;;;;11.30;100.00;99909.56;5048153;28;20044;-56
2023/03/16 08:11:11;;;;;;;6.60;0.65;;;;;;;11.43;100.00;99908.72;5050289;28;20033;-51
2023/03/16 08:13:36;;;;;;;2.97;1.42;;;;;;;11.47;100.00;99902.78;5047166;28;20507;-55
2023/03/16 08:16:02;;;;;;;1.98;0.52;;;;;;;11.51;100.00;99909.31;5046511;28;20021;-56
2023/03/16 08:18:28;;;;;;;8.25;1.00;;;;;;;11.48;100.00;99915.03;5040996;28;20049;-54
2023/03/16 08:20:55;;;;;;;6.03;0.63;;;;;;;11.57;100.00;99918.28;5045189;28;20183;-52
2023/03/16 08:23:21;;;;;;;5.82;0.50;;;;;;;11.51;100.00;99919.94;5043180;28;20063;-54
2023/03/16 08:25:50;;;;;;;6.82;1.10;;;;;;;11.44;100.00;99911.19;5044082;28;20025;-50
2023/03/16 08:28:15;;;;;;;3.53;0.60;;;;;;;11.48;100.00;99914.22;5040169;28;20429;-49
2023/03/16 08:30:48;;;;;;;3.33;0.20;;;;;;;11.49;100.00;99913.19;5046360;28;20031;-53
2023/03/16 08:33:14;;;;;;;0.80;0.38;;;;;;;11.51;100.00;99913.78;5041005;28;20243;-54
2023/03/16 08:35:45;;;;;;;2.55;0.22;;;;;;;11.56;100.00;99911.31;5043512;28;20025;-54
2023/03/16 08:38:12;;;;;;;6.00;1.50;;;;;;;11.54;100.00;99916.84;5043288;28;20432;-50
2023/03/16 08:40:41;;;;;;;3.95;0.40;;;;;;;11.46;100.00;99914.44;5042059;28;20599;-52
2023/03/16 08:43:07;;;;;;;2.13;0.00;;;;;;;11.45;100.00;99914.63;5039387;28;20053;-52
2023/03/16 08:45:33;;;;;;;1.17;0.30;;;;;;;11.48;100.00;99914.22;5046475;28;20047;-54
2023/03/16 08:47:59;;;;;;;6.03;1.75;;;;;;;11.49;100.00;99914.00;5042019;28;20067;-51
2023/03/16 08:50:24;;;;;;;8.00;1.20;;;;;;;11.48;100.00;99914.22;5040733;28;20057;-53
2023/03/16 08:52:49;;;;;;;2.42;0.15;;;;;;;11.48;100.00;99909.72;5038125;28;20037;-53
2023/03/16 08:55:15;;;;;;;1.10;0.10;;;;;;;11.51;100.00;99908.47;5038850;28;20037;-53
2023/03/16 08:57:43;;;;;;;10.02;0.68;;;;;;;11.53;100.00;99912.53;5040861;28;20021;-51
2023/03/16 09:00:13;;;;;;;2.58;0.40;;;;;;;11.51;100.00;99905.81;5034415;28;20021;-53
2023/03/16 09:02:42;;;;;;;5.40;1.00;;;;;;;11.52;100.00;99902.16;5041452;28;20028;-53
2023/03/16 09:05:09;;;;;;;1.08;0.57;;;;;;;11.57;100.00;99897.84;5040579;28;20041;-56
2023/03/16 09:07:36;;;;;;;3.67;0.98;;;;;;;11.60;100.00;99901.09;5038833;28;20478;-56
2023/03/16 09:10:04;;;;;;;6.20;0.35;;;;;;;11.60;100.00;99893.94;5037304;28;20063;-54
2023/03/16 09:12:30;;;;;;;5.68;0.17;;;;;;;11.63;100.00;99892.72;5039303;28;20036;-55
2023/03/16 09:14:55;;;;;;;3.05;1.00;;;;;;;11.58;100.00;99896.81;5044807;28;20386;-52
2023/03/16 09:17:21;;;;;;;3.58;1.15;;;;;;;11.56;100.00;99893.56;5040572;28;20036;-56
2023/03/16 09:19:46;;;;;;;3.53;0.32;;;;;;;11.49;100.00;99900.75;5039127;28;20405;-51
2023/03/16 09:22:12;;;;;;;1.52;0.52;;;;;;;11.60;100.00;99896.59;5036800;28;20021;-50
2023/03/16 09:24:37;;;;;;;1.02;0.17;;;;;;;11.64;100.00;99903.13;5034423;28;20037;-52
2023/03/16 09:27:04;;;;;;;4.03;0.90;;;;;;;11.63;100.00;99905.97;5042196;28;20530;-53
2023/03/16 09:29:29;;;;;;;4.30;1.73;;;;;;;11.62;100.00;99905.19;5035393;28;20135;-52
2023/03/16 09:31:54;;;;;;;4.82;0.10;;;;;;;11.66;100.00;99902.91;5034408;28;20037;-53
2023/03/16 09:34:20;;;;;;;2.92;0.40;;;;;;;11.69;100.00;99895.31;5035176;28;20048;-52
2023/03/16 09:36:46;;;;;;;2.97;1.08;;;;;;;11.64;100.00;99896.97;5027740;28;20398;-53
2023/03/16 09:39:12;;;;;;;3.20;0.08;;;;;;;11.67;100.00;99897.38;5039310;28;20021;-51
2023/03/16 09:41:41;;;;;;;2.20;0.82;;;;;;;11.74;100.00;99897.34;5045544;28;20054;-53
2023/03/16 09:44:26;;;;;;;2.25;0.00;;;;;;;11.76;100.00;99905.91;5041204;28;20025;-53
2023/03/16 09:46:55;;;;;;;1.05;0.10;;;;;;;11.93;100.00;99903.63;5042681;28;20037;-50
2023/03/16 09:49:24;;;;;;;1.95;0.63;;;;;;;11.98;100.00;99909.91;5039244;28;20033;-52
2023/03/16 09:51:52;;;;;;;3.33;0.35;;;;;;;12.13;100.00;99906.97;5046247;28;20153;-51
2023/03/16 09:54:41;;;;;;;4.15;1.20;;;;;;;12.21;100.00;99898.72;5039581;28;20348;-54
2023/03/16 09:57:29;;;;;;;0.82;0.20;;;;;;;12.38;100.00;99898.97;5038809;28;20025;-56
2023/03/16 10:00:01;;;;;;;5.28;0.63;;;;;;;12.47;100.00;99890.72;5042683;28;20025;-51
2023/03/16 10:02:36;;;;;;;0.77;0.20;;;;;;;12.49;100.00;99896.66;5040675;28;20389;-51
2023/03/16 10:05:11;;;;;;;7.13;0.65;;;;;;;12.57;100.00;99883.06;5044059;28;20432;-56
2023/03/16 10:08:04;;;;;;;4.22;0.20;;;;;;;12.65;100.00;99872.19;5046088;28;20390;-55
2023/03/16 10:10:29;;;;;;;2.05;0.40;;;;;;;12.74;100.00;99867.38;5037376;28;20043;-50
2023/03/16 10:13:00;;;;;;;2.42;0.30;;;;;;;12.88;100.00;99866.19;5043818;28;20029;-53
2023/03/16 10:15:30;;;;;;;4.88;0.93;;;;;;;12.96;100.00;99865.09;5037521;28;20040;-53
2023/03/16 10:18:05;;;;;;;7.00;0.50;;;;;;;12.99;100.00;99856.69;5043859;28;20025;-53
2023/03/16 10:20:33;;;;;;;1.60;0.85;;;;;;;12.89;100.00;99859.84;5038508;28;20049;-57
2023/03/16 10:23:04;;;;;;;5.88;0.98;;;;;;;13.05;100.00;99855.78;5047520;28;20028;-53
2023/03/16 10:25:46;;;;;;;5.22;0.35;;;;;;;13.10;100.00;99853.28;5048666;28;20083;-56
2023/03/16 10:28:18;;;;;;;3.10;0.10;;;;;;;13.17;100.00;99850.53;5049616;28;21661;-55
2023/03/16 10:30:46;;;;;;;4.03;1.42;;;;;;;13.19;100.00;99845.78;5042958;28;20025;-51
2023/03/16 10:33:25;;;;;;;0.95;0.90;;;;;;;13.19;100.00;99845.78;5043005;28;20029;-54
2023/03/16 10:35:56;;;;;;;3.25;1.00;;;;;;;13.23;100.00;99837.13;5050960;28;20311;-54
2023/03/16 10:38:39;;;;;;;2.92;0.22;;;;;;;13.29;100.00;99841.63;5046845;28;20060;-51
2023/03/16 10:41:16;;;;;;;7.25;0.55;;;;;;;13.34;100.00;99824.13;5046848;28;20493;-49
2023/03/16 10:43:43;;;;;;;1.67;0.40;;;;;;;13.38;100.00;99826.13;5046847;28;20033;-55
2023/03/16 10:46:10;;;;;;;2.30;0.85;;;;;;;13.57;100.00;99824.22;5049286;28;20025;-55
2023/03/16 10:48:37;;;;;;;2.05;0.47;;;;;;;13.69;100.00;99819.75;5060431;28;20030;-53
2023/03/16 10:51:07;;;;;;;4.63;0.65;;;;;;;13.66;100.00;99809.56;5041245;28;20071;-54
2023/03/16 10:53:35;;;;;;;6.85;0.43;;;;;;;13.98;100.00;99811.13;5050729;28;20386;-50
2023/03/16 10:56:10;;;;;;;8.30;0.73;;;;;;;14.06;100.00;99802.78;5048482;28;20060;-52
2023/03/16 10:58:41;;;;;;;7.43;0.40;;;;;;;14.24;100.00;99807.22;5050558;28;20032;-52
2023/03/16 11:01:25;;;;;;;5.37;0.10;;;;;;;14.28;100.00;99789.72;5041912;28;20056;-49
2023/03/16 11:03:54;;;;;;;2.40;0.40;;;;;;;13.99;100.00;99797.56;5043098;28;20035;-55
2023/03/16 11:06:24;;;;;;;2.20;0.38;;;;;;;13.78;100.00;99782.94;5042654;28;20044;-52
2023/03/16 11:08:51;;;;;;;4.45;0.38;;;;;;;14.09;100.00;99776.47;5042963;28;20037;-52
2023/03/16 11:11:23;;;;;;;4.47;1.55;;;;;;;14.34;100.00;99765.59;5048209;28;20036;-53
2023/03/16 11:13:48;;;;;;;2.47;0.15;;;;;;;14.60;100.00;99756.31;5046954;28;20485;-57
2023/03/16 11:16:43;;;;;;;3.38;0.40;;;;;;;14.63;100.00;99754.22;5046844;28;20043;-53
2023/03/16 11:19:17;;;;;;;1.40;0.20;;;;;;;14.62;100.00;99766.75;5045540;28;20466;-53
2023/03/16 11:21:57;;;;;;;4.18;0.85;;;;;;;14.61;100.00;99767.78;5042361;28;20060;-55
2023/03/16 11:24:36;;;;;;;2.03;0.82;;;;;;;14.60;100.00;99763.50;5048797;28;20044;-55
2023/03/16 11:27:07;;;;;;;3.88;0.40;;;;;;;15.01;100.00;99751.00;5042431;28;20476;-56